createdAt,value
2018-05-18T00:00:46.342Z,42.00
2018-05-18T00:01:51.277Z,42.00
2018-05-18T00:02:56.040Z,42.00
2018-05-18T00:04:00.800Z,42.00
2018-05-18T00:05:05.604Z,42.00
2018-05-18T00:06:10.686Z,42.00
2018-05-18T00:07:15.728Z,42.10
2018-05-18T00:08:20.518Z,42.00
2018-05-18T00:09:25.353Z,42.10
2018-05-18T00:10:30.284Z,42.00
2018-05-18T00:11:35.313Z,42.10
2018-05-18T00:12:40.318Z,42.00
2018-05-18T00:13:45.369Z,42.00
2018-05-18T00:14:50.226Z,42.00
2018-05-18T00:15:55.031Z,42.00
2018-05-18T00:16:59.924Z,42.00
2018-05-18T00:18:04.838Z,42.00
2018-05-18T00:19:09.476Z,42.00
2018-05-18T00:20:14.542Z,42.00
2018-05-18T00:21:19.314Z,42.00
2018-05-18T00:22:24.199Z,42.00
2018-05-18T00:23:29.075Z,42.10
2018-05-18T00:24:33.982Z,42.10
2018-05-18T00:25:38.833Z,42.00
2018-05-18T00:26:43.695Z,42.10
2018-05-18T00:27:48.463Z,42.00
2018-05-18T00:28:53.377Z,42.00
2018-05-18T00:29:58.665Z,42.00
2018-05-18T00:31:03.495Z,42.00
2018-05-18T00:32:08.377Z,42.00
2018-05-18T00:33:13.185Z,42.00
2018-05-18T00:34:17.963Z,42.10
2018-05-18T00:35:22.744Z,42.10
2018-05-18T00:36:27.537Z,42.00
2018-05-18T00:37:32.456Z,42.10
2018-05-18T00:38:37.414Z,42.10
2018-05-18T00:39:42.292Z,42.10
2018-05-18T00:40:48.912Z,42.10
2018-05-18T00:41:53.969Z,42.00
2018-05-18T00:42:58.741Z,42.10
2018-05-18T00:44:03.641Z,42.10
2018-05-18T00:45:08.591Z,42.00
2018-05-18T00:46:13.586Z,42.10
2018-05-18T00:47:18.417Z,42.10
2018-05-18T00:48:23.068Z,42.00
2018-05-18T00:49:27.798Z,42.10
2018-05-18T00:50:32.561Z,42.10
2018-05-18T00:51:37.423Z,42.00
2018-05-18T00:52:42.084Z,42.00
2018-05-18T00:53:47.032Z,42.00
2018-05-18T00:54:51.858Z,42.70
2018-05-18T00:55:56.542Z,42.10
2018-05-18T00:57:01.540Z,42.10
2018-05-18T00:58:06.298Z,42.00
2018-05-18T00:59:11.169Z,42.10
2018-05-18T01:00:16.340Z,42.10
2018-05-18T01:01:21.070Z,42.10
2018-05-18T01:02:26.098Z,42.10
2018-05-18T01:03:30.871Z,42.10
2018-05-18T01:04:35.764Z,42.00
2018-05-18T01:05:40.780Z,42.10
2018-05-18T01:06:45.545Z,42.10
2018-05-18T01:07:50.440Z,42.00
2018-05-18T01:08:55.410Z,42.00
2018-05-18T01:10:00.339Z,42.00
2018-05-18T01:11:05.378Z,42.00
2018-05-18T01:12:10.502Z,42.00
2018-05-18T01:13:15.244Z,42.10
2018-05-18T01:14:19.907Z,42.00
2018-05-18T01:15:24.797Z,42.10
2018-05-18T01:16:29.652Z,42.00
2018-05-18T01:17:34.382Z,42.00
2018-05-18T01:18:39.443Z,42.00
2018-05-18T01:19:44.281Z,42.00
2018-05-18T01:20:49.334Z,42.00
2018-05-18T01:21:54.409Z,42.00
2018-05-18T01:22:59.409Z,42.00
2018-05-18T01:24:04.350Z,42.10
2018-05-18T01:25:09.096Z,42.10
2018-05-18T01:26:14.094Z,42.10
2018-05-18T01:27:19.162Z,42.10
2018-05-18T01:28:24.277Z,42.10
2018-05-18T01:29:29.921Z,42.10
2018-05-18T01:30:34.777Z,42.10
2018-05-18T01:31:39.792Z,42.10
2018-05-18T01:32:44.818Z,42.10
2018-05-18T01:33:50.010Z,42.10
2018-05-18T01:34:54.876Z,42.10
2018-05-18T01:35:59.800Z,42.10
2018-05-18T01:37:04.566Z,42.10
2018-05-18T01:38:10.676Z,42.10
2018-05-18T01:39:15.927Z,42.10
2018-05-18T01:40:20.982Z,42.10
2018-05-18T01:41:26.085Z,42.10
2018-05-18T01:42:30.978Z,42.10
2018-05-18T01:43:35.805Z,42.10
2018-05-18T01:44:40.769Z,42.10
2018-05-18T01:45:45.710Z,42.10
2018-05-18T01:46:50.787Z,42.10
2018-05-18T01:47:55.754Z,42.00
2018-05-18T01:49:00.511Z,42.10
2018-05-18T01:50:05.577Z,42.10
2018-05-18T01:51:10.310Z,42.10
2018-05-18T01:52:15.216Z,42.10
2018-05-18T01:53:20.256Z,42.10
2018-05-18T01:54:25.235Z,42.10
2018-05-18T01:55:30.045Z,42.10
2018-05-18T01:56:35.105Z,42.10
2018-05-18T01:57:40.135Z,42.10
2018-05-18T01:58:45.012Z,42.10
2018-05-18T01:59:49.846Z,42.10
2018-05-18T02:00:54.726Z,42.10
2018-05-18T02:01:59.413Z,42.10
2018-05-18T02:03:04.454Z,42.10
2018-05-18T02:04:09.283Z,42.10
2018-05-18T02:05:14.210Z,42.10
2018-05-18T02:06:18.970Z,42.10
2018-05-18T02:07:23.758Z,42.10
2018-05-18T02:08:28.712Z,42.10
2018-05-18T02:09:33.500Z,42.10
2018-05-18T02:10:38.277Z,42.10
2018-05-18T02:11:43.181Z,42.10
2018-05-18T02:12:48.065Z,42.10
2018-05-18T02:13:52.718Z,42.10
2018-05-18T02:14:57.312Z,42.10
2018-05-18T02:16:01.964Z,42.10
2018-05-18T02:17:06.785Z,42.10
2018-05-18T02:18:11.665Z,42.10
2018-05-18T02:19:16.666Z,42.10
2018-05-18T02:20:21.505Z,42.10
2018-05-18T02:21:26.506Z,42.10
2018-05-18T02:22:31.233Z,42.10
2018-05-18T02:23:35.912Z,42.10
2018-05-18T02:24:40.844Z,42.10
2018-05-18T02:25:45.795Z,42.10
2018-05-18T02:26:50.631Z,42.10
2018-05-18T02:27:55.702Z,42.10
2018-05-18T02:29:00.530Z,42.30
2018-05-18T02:30:05.369Z,42.10
2018-05-18T02:31:10.265Z,42.10
2018-05-18T02:32:15.123Z,42.10
2018-05-18T02:33:19.895Z,42.10
2018-05-18T02:34:24.769Z,42.10
2018-05-18T02:35:29.782Z,42.10
2018-05-18T02:36:34.638Z,42.10
2018-05-18T02:37:39.570Z,42.10
2018-05-18T02:38:44.314Z,42.10
2018-05-18T02:39:49.381Z,42.10
2018-05-18T02:40:54.365Z,42.10
2018-05-18T02:41:59.208Z,42.10
2018-05-18T02:43:04.217Z,42.10
2018-05-18T02:44:09.138Z,42.10
2018-05-18T02:45:13.914Z,42.80
2018-05-18T02:46:18.809Z,42.10
2018-05-18T02:47:23.813Z,42.10
2018-05-18T02:48:28.776Z,42.10
2018-05-18T02:49:33.686Z,42.10
2018-05-18T02:50:38.554Z,42.20
2018-05-18T02:51:43.541Z,42.10
2018-05-18T02:52:48.522Z,42.10
2018-05-18T02:53:53.330Z,42.10
2018-05-18T02:54:58.144Z,42.10
2018-05-18T02:56:02.831Z,42.20
2018-05-18T02:57:07.616Z,42.20
2018-05-18T02:58:12.431Z,42.20
2018-05-18T02:59:17.287Z,42.20
2018-05-18T03:00:22.005Z,42.10
2018-05-18T03:01:26.897Z,42.20
2018-05-18T03:02:31.690Z,42.20
2018-05-18T03:03:36.654Z,42.20
2018-05-18T03:04:41.555Z,42.20
2018-05-18T03:05:46.517Z,42.20
2018-05-18T03:06:51.278Z,42.20
2018-05-18T03:07:56.345Z,42.10
2018-05-18T03:09:01.404Z,42.10
2018-05-18T03:10:06.404Z,42.20
2018-05-18T03:11:11.486Z,42.80
2018-05-18T03:12:16.292Z,42.20
2018-05-18T03:13:21.268Z,42.20
2018-05-18T03:14:26.446Z,42.20
2018-05-18T03:15:31.187Z,42.20
2018-05-18T03:16:36.137Z,42.20
2018-05-18T03:17:41.208Z,42.20
2018-05-18T03:18:46.025Z,42.20
2018-05-18T03:19:51.301Z,42.20
2018-05-18T03:20:56.244Z,42.20
2018-05-18T03:22:01.217Z,42.20
2018-05-18T03:23:06.274Z,42.20
2018-05-18T03:24:11.125Z,42.80
2018-05-18T03:25:16.248Z,42.20
2018-05-18T03:26:21.040Z,42.20
2018-05-18T03:27:26.048Z,42.20
2018-05-18T03:28:31.136Z,42.20
2018-05-18T03:29:36.111Z,42.20
2018-05-18T03:30:40.997Z,42.20
2018-05-18T03:31:46.063Z,42.20
2018-05-18T03:32:51.189Z,42.20
2018-05-18T03:33:56.134Z,42.20
2018-05-18T03:35:01.063Z,42.20
2018-05-18T03:36:05.921Z,42.20
2018-05-18T03:37:10.974Z,42.20
2018-05-18T03:38:15.660Z,42.20
2018-05-18T03:39:20.818Z,42.20
2018-05-18T03:40:26.773Z,42.20
2018-05-18T03:41:31.739Z,42.20
2018-05-18T03:42:36.606Z,42.30
2018-05-18T03:43:41.489Z,42.20
2018-05-18T03:44:46.323Z,42.30
2018-05-18T03:45:51.400Z,42.20
2018-05-18T03:46:56.368Z,42.20
2018-05-18T03:48:01.146Z,42.30
2018-05-18T03:49:05.878Z,42.20
2018-05-18T03:50:10.725Z,42.30
2018-05-18T03:51:16.114Z,42.30
2018-05-18T03:52:21.098Z,42.30
2018-05-18T03:53:25.967Z,42.30
2018-05-18T03:54:31.019Z,42.30
2018-05-18T03:55:36.026Z,42.30
2018-05-18T03:56:40.614Z,42.30
2018-05-18T03:57:45.725Z,42.30
2018-05-18T03:58:50.510Z,42.30
2018-05-18T03:59:55.309Z,42.30
2018-05-18T04:01:00.401Z,42.30
2018-05-18T04:02:05.487Z,42.30
2018-05-18T04:03:10.529Z,42.30
2018-05-18T04:04:15.358Z,42.30
2018-05-18T04:05:20.287Z,42.20
2018-05-18T04:06:25.055Z,42.20
2018-05-18T04:07:30.024Z,42.30
2018-05-18T04:08:35.039Z,42.30
2018-05-18T04:09:40.019Z,42.90
2018-05-18T04:10:45.076Z,42.30
2018-05-18T04:11:50.066Z,42.20
2018-05-18T04:12:54.825Z,42.20
2018-05-18T04:13:59.676Z,42.20
2018-05-18T04:15:04.549Z,42.30
2018-05-18T04:16:09.504Z,42.30
2018-05-18T04:17:14.446Z,42.30
2018-05-18T04:18:19.106Z,42.30
2018-05-18T04:19:23.934Z,42.30
2018-05-18T04:20:28.699Z,42.30
2018-05-18T04:21:33.509Z,42.30
2018-05-18T04:22:38.501Z,42.30
2018-05-18T04:23:43.621Z,42.30
2018-05-18T04:24:48.230Z,42.30
2018-05-18T04:25:52.992Z,42.30
2018-05-18T04:26:57.852Z,42.30
2018-05-18T04:28:02.877Z,42.30
2018-05-18T04:29:07.585Z,42.30
2018-05-18T04:30:12.731Z,42.30
2018-05-18T04:31:17.558Z,42.30
2018-05-18T04:32:22.588Z,42.30
2018-05-18T04:33:27.487Z,42.30
2018-05-18T04:34:32.486Z,42.30
2018-05-18T04:35:37.484Z,42.30
2018-05-18T04:36:42.574Z,42.30
2018-05-18T04:37:47.290Z,42.30
2018-05-18T04:38:52.127Z,42.30
2018-05-18T04:39:57.171Z,42.30
2018-05-18T04:41:02.130Z,42.30
2018-05-18T04:42:07.041Z,42.30
2018-05-18T04:43:12.079Z,42.30
2018-05-18T04:44:16.906Z,42.30
2018-05-18T04:45:21.978Z,42.30
2018-05-18T04:46:27.009Z,42.30
2018-05-18T04:47:31.935Z,42.30
2018-05-18T04:48:36.878Z,42.30
2018-05-18T04:49:41.778Z,42.20
2018-05-18T04:50:46.611Z,42.20
2018-05-18T04:51:51.469Z,42.30
2018-05-18T04:52:56.306Z,42.30
2018-05-18T04:54:01.196Z,42.20
2018-05-18T04:55:06.083Z,42.20
2018-05-18T04:56:11.042Z,42.20
2018-05-18T04:57:15.874Z,42.40
2018-05-18T04:58:20.646Z,42.20
2018-05-18T04:59:25.485Z,42.20
2018-05-18T05:00:30.321Z,42.30
2018-05-18T05:01:35.164Z,42.20
2018-05-18T05:02:39.825Z,42.20
2018-05-18T05:03:44.512Z,42.20
2018-05-18T05:04:49.406Z,42.20
2018-05-18T05:05:54.368Z,42.30
2018-05-18T05:06:59.204Z,42.20
2018-05-18T05:08:03.889Z,42.20
2018-05-18T05:09:08.857Z,42.20
2018-05-18T05:10:14.118Z,42.20
2018-05-18T05:11:18.965Z,42.20
2018-05-18T05:12:23.845Z,42.20
2018-05-18T05:13:28.811Z,42.20
2018-05-18T05:14:33.732Z,42.20
2018-05-18T05:15:38.642Z,42.20
2018-05-18T05:16:43.682Z,42.20
2018-05-18T05:17:48.893Z,42.20
2018-05-18T05:18:53.737Z,42.20
2018-05-18T05:19:58.537Z,42.20
2018-05-18T05:21:03.543Z,42.20
2018-05-18T05:22:08.362Z,42.20
2018-05-18T05:23:13.170Z,42.20
2018-05-18T05:24:18.031Z,42.20
2018-05-18T05:25:22.971Z,42.20
2018-05-18T05:26:27.857Z,42.20
2018-05-18T05:27:32.822Z,42.10
2018-05-18T05:28:37.612Z,42.20
2018-05-18T05:29:42.513Z,42.20
2018-05-18T05:30:47.262Z,42.30
2018-05-18T05:31:52.138Z,42.30
2018-05-18T05:32:56.786Z,42.30
2018-05-18T05:34:01.649Z,42.40
2018-05-18T05:35:06.372Z,42.40
2018-05-18T05:36:11.078Z,42.40
2018-05-18T05:37:16.026Z,42.50
2018-05-18T05:38:20.826Z,42.50
2018-05-18T05:39:25.823Z,42.50
2018-05-18T05:40:30.493Z,42.50
2018-05-18T05:41:35.258Z,42.40
2018-05-18T05:42:40.254Z,42.40
2018-05-18T05:43:44.950Z,42.40
2018-05-18T05:44:49.689Z,42.40
2018-05-18T05:45:54.627Z,42.30
2018-05-18T05:46:59.598Z,42.50
2018-05-18T05:48:04.480Z,42.70
2018-05-18T05:49:09.475Z,42.80
2018-05-18T05:50:14.193Z,42.90
2018-05-18T05:51:19.180Z,42.60
2018-05-18T05:52:24.294Z,42.40
2018-05-18T05:53:29.399Z,42.40
2018-05-18T05:54:34.380Z,42.20
2018-05-18T05:55:39.184Z,42.30
2018-05-18T05:56:44.419Z,42.30
2018-05-18T05:57:49.198Z,42.30
2018-05-18T05:58:54.329Z,42.20
2018-05-18T05:59:59.000Z,42.40
2018-05-18T06:01:04.043Z,42.20
2018-05-18T06:02:09.793Z,42.20
2018-05-18T06:03:16.187Z,42.10
2018-05-18T06:04:23.708Z,42.10
2018-05-18T06:05:32.302Z,42.10
2018-05-18T06:06:41.335Z,42.20
2018-05-18T06:07:46.888Z,42.20
2018-05-18T06:08:51.748Z,42.20
2018-05-18T06:09:56.416Z,42.20
2018-05-18T06:11:01.158Z,42.20
2018-05-18T06:12:06.385Z,42.20
2018-05-18T06:13:11.352Z,42.20
2018-05-18T06:14:16.205Z,42.30
2018-05-18T06:15:21.079Z,42.30
2018-05-18T06:16:27.644Z,42.40
2018-05-18T06:17:32.629Z,42.20
2018-05-18T06:18:37.463Z,42.20
2018-05-18T06:19:42.413Z,42.20
2018-05-18T06:20:47.197Z,42.20
2018-05-18T06:21:52.344Z,42.20
2018-05-18T06:22:57.522Z,42.20
2018-05-18T06:24:02.597Z,42.20
2018-05-18T06:25:07.723Z,42.20
2018-05-18T06:26:12.994Z,42.30
2018-05-18T06:27:18.143Z,42.20
2018-05-18T06:28:23.275Z,42.40
2018-05-18T06:29:28.501Z,42.50
2018-05-18T06:30:33.782Z,42.50
2018-05-18T06:31:38.980Z,42.30
2018-05-18T06:32:43.845Z,42.40
2018-05-18T06:33:49.004Z,42.30
2018-05-18T06:34:54.136Z,42.40
2018-05-18T06:35:58.906Z,42.40
2018-05-18T06:37:04.017Z,42.40
2018-05-18T06:38:09.025Z,42.30
2018-05-18T06:39:14.151Z,42.20
2018-05-18T06:40:19.540Z,42.20
2018-05-18T06:41:24.589Z,42.40
2018-05-18T06:42:29.841Z,42.30
2018-05-18T06:43:34.964Z,42.40
2018-05-18T06:44:40.008Z,42.40
2018-05-18T06:45:44.881Z,42.40
2018-05-18T06:46:49.758Z,42.40
2018-05-18T06:47:54.762Z,42.40
2018-05-18T06:48:59.637Z,42.40
2018-05-18T06:50:04.667Z,42.30
2018-05-18T06:51:09.781Z,42.50
2018-05-18T06:52:14.727Z,42.50
2018-05-18T06:53:19.829Z,42.40
2018-05-18T06:54:24.566Z,42.50
2018-05-18T06:55:29.540Z,42.50
2018-05-18T06:56:34.548Z,42.50
2018-05-18T06:57:39.611Z,42.50
2018-05-18T06:58:45.360Z,42.50
2018-05-18T06:59:50.157Z,42.50
2018-05-18T07:00:55.145Z,42.50
2018-05-18T07:02:00.138Z,42.50
2018-05-18T07:03:05.251Z,42.50
2018-05-18T07:04:10.189Z,42.50
2018-05-18T07:05:15.339Z,42.50
2018-05-18T07:06:20.249Z,42.50
2018-05-18T07:07:25.198Z,42.50
2018-05-18T07:08:30.282Z,42.60
2018-05-18T07:09:35.204Z,42.50
2018-05-18T07:10:40.232Z,42.60
2018-05-18T07:11:45.131Z,42.60
2018-05-18T07:12:49.898Z,42.70
2018-05-18T07:13:54.745Z,42.60
2018-05-18T07:14:59.740Z,42.60
2018-05-18T07:16:04.719Z,42.60
2018-05-18T07:17:09.693Z,42.60
2018-05-18T07:18:14.637Z,42.60
2018-05-18T07:19:19.617Z,42.60
2018-05-18T07:20:24.743Z,42.60
2018-05-18T07:21:29.723Z,42.60
2018-05-18T07:22:34.789Z,42.50
2018-05-18T07:23:39.993Z,42.60
2018-05-18T07:24:45.125Z,42.60
2018-05-18T07:25:50.230Z,42.50
2018-05-18T07:26:55.497Z,43.20
2018-05-18T07:28:00.609Z,42.50
2018-05-18T07:29:05.848Z,42.50
2018-05-18T07:30:11.869Z,42.60
2018-05-18T07:31:16.889Z,42.60
2018-05-18T07:32:21.956Z,42.60
2018-05-18T07:33:27.159Z,42.50
2018-05-18T07:34:32.313Z,42.50
2018-05-18T07:35:38.045Z,42.50
2018-05-18T07:36:43.272Z,42.50
2018-05-18T07:37:48.097Z,42.50
2018-05-18T07:38:53.097Z,42.50
2018-05-18T07:39:58.122Z,42.50
2018-05-18T07:41:03.012Z,42.50
2018-05-18T07:42:07.769Z,42.50
2018-05-18T07:43:12.841Z,42.50
2018-05-18T07:44:17.761Z,42.50
2018-05-18T07:45:23.591Z,42.40
2018-05-18T07:46:28.421Z,42.40
2018-05-18T07:47:33.701Z,42.40
2018-05-18T07:48:38.649Z,42.40
2018-05-18T07:49:43.598Z,42.30
2018-05-18T07:50:48.471Z,42.30
2018-05-18T07:51:53.351Z,42.30
2018-05-18T07:52:58.158Z,42.20
2018-05-18T07:54:03.206Z,42.30
2018-05-18T07:55:08.333Z,42.30
2018-05-18T07:56:13.122Z,42.20
2018-05-18T07:57:18.207Z,42.10
2018-05-18T07:58:23.633Z,42.20
2018-05-18T07:59:28.557Z,42.20
2018-05-18T08:00:33.482Z,42.20
2018-05-18T08:01:38.478Z,42.20
2018-05-18T08:02:43.650Z,42.20
2018-05-18T08:03:48.482Z,42.10
2018-05-18T08:04:53.548Z,42.10
2018-05-18T08:05:58.552Z,42.10
2018-05-18T08:07:03.716Z,42.10
2018-05-18T08:08:08.560Z,42.10
2018-05-18T08:09:13.448Z,42.10
2018-05-18T08:10:18.317Z,42.10
2018-05-18T08:11:23.227Z,42.20
2018-05-18T08:12:28.083Z,42.30
2018-05-18T08:13:33.029Z,42.20
2018-05-18T08:14:38.099Z,42.30
2018-05-18T08:15:43.017Z,42.20
2018-05-18T08:16:47.810Z,42.20
2018-05-18T08:17:52.411Z,42.20
2018-05-18T08:18:57.318Z,42.20
2018-05-18T08:20:02.167Z,42.20
2018-05-18T08:21:07.291Z,42.30
2018-05-18T08:22:12.175Z,42.30
2018-05-18T08:23:16.949Z,42.20
2018-05-18T08:24:21.886Z,42.20
2018-05-18T08:25:26.867Z,42.20
2018-05-18T08:26:31.563Z,42.20
2018-05-18T08:27:36.252Z,42.10
2018-05-18T08:28:41.075Z,42.10
2018-05-18T08:29:45.968Z,42.00
2018-05-18T08:30:50.896Z,42.00
2018-05-18T08:31:55.837Z,41.90
2018-05-18T08:33:00.907Z,41.90
2018-05-18T08:34:05.740Z,41.90
2018-05-18T08:35:10.560Z,41.90
2018-05-18T08:36:15.552Z,41.90
2018-05-18T08:37:20.389Z,41.90
2018-05-18T08:38:25.207Z,41.80
2018-05-18T08:39:29.999Z,41.80
2018-05-18T08:40:34.773Z,41.80
2018-05-18T08:41:39.699Z,41.80
2018-05-18T08:42:44.382Z,41.70
2018-05-18T08:43:49.263Z,41.80
2018-05-18T08:44:54.137Z,41.70
2018-05-18T08:45:59.180Z,41.70
2018-05-18T08:47:04.118Z,41.70
2018-05-18T08:48:08.893Z,41.60
2018-05-18T08:49:13.901Z,41.60
2018-05-18T08:50:18.677Z,41.60
2018-05-18T08:51:23.642Z,42.30
2018-05-18T08:52:28.796Z,41.50
2018-05-18T08:53:33.787Z,41.60
2018-05-18T08:54:38.499Z,41.50
2018-05-18T08:55:43.500Z,41.60
2018-05-18T08:56:48.312Z,41.50
2018-05-18T08:57:53.317Z,41.50
2018-05-18T08:58:58.467Z,41.40
2018-05-18T09:00:03.453Z,41.40
2018-05-18T09:01:08.196Z,41.40
2018-05-18T09:02:13.030Z,41.40
2018-05-18T09:03:17.772Z,41.40
2018-05-18T09:04:22.787Z,41.50
2018-05-18T09:05:27.692Z,41.40
2018-05-18T09:06:32.567Z,41.40
2018-05-18T09:07:37.603Z,41.40
2018-05-18T09:08:42.468Z,41.40
2018-05-18T09:09:47.407Z,41.40
2018-05-18T09:10:52.364Z,41.40
2018-05-18T09:11:57.219Z,41.40
2018-05-18T09:13:02.097Z,41.30
2018-05-18T09:14:06.917Z,41.30
2018-05-18T09:15:11.612Z,41.30
2018-05-18T09:16:16.480Z,41.30
2018-05-18T09:17:21.199Z,41.20
2018-05-18T09:18:26.123Z,41.20
2018-05-18T09:19:31.061Z,41.20
2018-05-18T09:20:36.017Z,41.20
2018-05-18T09:21:40.920Z,41.20
2018-05-18T09:22:45.674Z,41.20
2018-05-18T09:23:50.689Z,41.20
2018-05-18T09:24:55.680Z,41.20
2018-05-18T09:26:00.666Z,41.20
2018-05-18T09:27:05.498Z,41.20
2018-05-18T09:28:10.405Z,41.20
2018-05-18T09:29:15.285Z,41.20
2018-05-18T09:30:20.132Z,41.10
2018-05-18T09:31:25.131Z,41.10
2018-05-18T09:32:30.167Z,41.10
2018-05-18T09:33:35.121Z,41.10
2018-05-18T09:34:40.054Z,41.10
2018-05-18T09:35:45.167Z,41.10
2018-05-18T09:36:50.056Z,41.10
2018-05-18T09:37:54.897Z,41.00
2018-05-18T09:38:59.944Z,41.10
2018-05-18T09:40:04.754Z,41.00
2018-05-18T09:41:09.752Z,41.10
2018-05-18T09:42:14.758Z,41.00
2018-05-18T09:43:19.749Z,41.00
2018-05-18T09:44:24.744Z,41.00
2018-05-18T09:45:29.872Z,40.90
2018-05-18T09:46:35.047Z,41.00
2018-05-18T09:47:40.067Z,41.00
2018-05-18T09:48:44.942Z,41.00
2018-05-18T09:49:50.088Z,41.00
2018-05-18T09:50:55.081Z,41.00
2018-05-18T09:51:59.951Z,41.00
2018-05-18T09:53:05.095Z,41.00
2018-05-18T09:54:10.147Z,41.00
2018-05-18T09:55:15.121Z,41.00
2018-05-18T09:56:19.834Z,41.00
2018-05-18T09:57:24.627Z,40.90
2018-05-18T09:58:29.671Z,40.90
2018-05-18T09:59:34.763Z,40.90
2018-05-18T10:00:39.797Z,40.90
2018-05-18T10:01:44.584Z,40.80
2018-05-18T10:02:49.628Z,40.80
2018-05-18T10:03:54.321Z,40.80
2018-05-18T10:04:59.333Z,40.70
2018-05-18T10:06:04.279Z,40.70
2018-05-18T10:07:09.205Z,40.70
2018-05-18T10:08:14.256Z,40.70
2018-05-18T10:09:19.306Z,40.70
2018-05-18T10:10:24.143Z,40.60
2018-05-18T10:11:28.923Z,40.70
2018-05-18T10:12:33.837Z,40.80
2018-05-18T10:13:38.746Z,40.60
2018-05-18T10:14:43.835Z,40.70
2018-05-18T10:15:48.913Z,40.70
2018-05-18T10:16:53.791Z,40.70
2018-05-18T10:17:58.512Z,40.60
2018-05-18T10:19:03.729Z,40.60
2018-05-18T10:20:08.677Z,40.60
2018-05-18T10:21:14.355Z,40.60
2018-05-18T10:22:19.086Z,40.60
2018-05-18T10:23:23.842Z,40.60
2018-05-18T10:24:28.700Z,40.60
2018-05-18T10:25:33.657Z,40.50
2018-05-18T10:26:38.581Z,40.50
2018-05-18T10:27:43.591Z,40.50
2018-05-18T10:28:48.625Z,40.40
2018-05-18T10:29:53.534Z,40.50
2018-05-18T10:30:58.673Z,40.40
2018-05-18T10:32:03.655Z,40.50
2018-05-18T10:33:08.523Z,40.60
2018-05-18T10:34:13.432Z,40.60
2018-05-18T10:35:18.320Z,40.60
2018-05-18T10:36:23.345Z,40.60
2018-05-18T10:37:28.311Z,40.60
2018-05-18T10:38:33.120Z,40.50
2018-05-18T10:39:38.127Z,40.50
2018-05-18T10:40:42.921Z,40.50
2018-05-18T10:41:47.879Z,40.40
2018-05-18T10:42:52.823Z,40.50
2018-05-18T10:43:57.808Z,40.50
2018-05-18T10:45:02.786Z,40.60
2018-05-18T10:46:07.733Z,40.50
2018-05-18T10:47:12.604Z,40.50
2018-05-18T10:48:17.724Z,40.50
2018-05-18T10:49:22.769Z,40.50
2018-05-18T10:50:27.540Z,40.50
2018-05-18T10:51:32.556Z,40.50
2018-05-18T10:52:37.455Z,40.50
2018-05-18T10:53:42.502Z,40.50
2018-05-18T10:54:47.263Z,40.50
2018-05-18T10:55:52.089Z,40.60
2018-05-18T10:56:57.035Z,40.50
2018-05-18T10:58:02.104Z,40.60
2018-05-18T10:59:06.958Z,40.50
2018-05-18T11:00:12.064Z,40.50
2018-05-18T11:01:16.812Z,40.50
2018-05-18T11:02:21.533Z,40.50
2018-05-18T11:03:27.112Z,40.40
2018-05-18T11:04:32.247Z,40.40
2018-05-18T11:05:37.246Z,40.40
2018-05-18T11:06:41.978Z,40.40
2018-05-18T11:07:46.953Z,40.50
2018-05-18T11:08:51.822Z,40.50
2018-05-18T11:09:56.680Z,40.60
2018-05-18T11:11:01.674Z,40.50
2018-05-18T11:12:06.700Z,40.50
2018-05-18T11:13:11.738Z,40.60
2018-05-18T11:14:16.820Z,40.50
2018-05-18T11:15:21.552Z,40.60
2018-05-18T11:16:26.625Z,40.50
2018-05-18T11:17:31.469Z,40.50
2018-05-18T11:18:36.553Z,40.50
2018-05-18T11:19:41.600Z,40.50
2018-05-18T11:20:46.218Z,40.50
2018-05-18T11:21:50.855Z,40.50
2018-05-18T11:22:55.981Z,40.50
2018-05-18T11:24:00.835Z,40.50
2018-05-18T11:25:05.684Z,40.50
2018-05-18T11:26:10.558Z,40.50
2018-05-18T11:27:15.276Z,40.50
2018-05-18T11:28:19.983Z,40.40
2018-05-18T11:29:24.618Z,40.40
2018-05-18T11:30:29.682Z,40.40
2018-05-18T11:31:34.703Z,40.50
2018-05-18T11:32:39.483Z,40.50
2018-05-18T11:33:44.306Z,40.50
2018-05-18T11:34:49.244Z,40.50
2018-05-18T11:35:54.207Z,40.50
2018-05-18T11:36:59.242Z,40.50
2018-05-18T11:38:04.315Z,40.50
2018-05-18T11:39:09.094Z,40.60
2018-05-18T11:40:13.863Z,40.60
2018-05-18T11:41:19.035Z,40.60
2018-05-18T11:42:24.007Z,40.50
2018-05-18T11:43:28.799Z,40.50
2018-05-18T11:44:33.702Z,40.50
2018-05-18T11:45:38.653Z,40.50
2018-05-18T11:46:43.573Z,40.50
2018-05-18T11:47:48.478Z,40.40
2018-05-18T11:48:53.564Z,40.40
2018-05-18T11:49:58.337Z,40.40
2018-05-18T11:51:03.056Z,40.40
2018-05-18T11:52:07.897Z,40.40
2018-05-18T11:53:12.814Z,40.40
2018-05-18T11:54:17.894Z,40.90
2018-05-18T11:55:23.116Z,40.30
2018-05-18T11:56:27.905Z,40.30
2018-05-18T11:57:32.912Z,40.30
2018-05-18T11:58:37.683Z,40.30
2018-05-18T11:59:42.586Z,40.30
2018-05-18T12:00:47.659Z,40.20
2018-05-18T12:01:52.624Z,40.30
2018-05-18T12:02:57.876Z,40.30
2018-05-18T12:04:02.835Z,40.30
2018-05-18T12:05:07.772Z,40.30
2018-05-18T12:06:13.167Z,40.30
2018-05-18T12:07:18.069Z,40.30
2018-05-18T12:08:23.296Z,40.30
2018-05-18T12:09:28.159Z,40.30
2018-05-18T12:10:33.263Z,40.30
2018-05-18T12:11:38.158Z,40.30
2018-05-18T12:12:43.384Z,40.30
2018-05-18T12:13:48.440Z,40.40
2018-05-18T12:14:53.417Z,40.40
2018-05-18T12:15:58.320Z,40.40
2018-05-18T12:17:03.483Z,40.30
2018-05-18T12:18:08.953Z,40.40
2018-05-18T12:19:13.955Z,40.40
2018-05-18T12:20:19.021Z,40.40
2018-05-18T12:21:23.922Z,40.40
2018-05-18T12:22:28.846Z,40.40
2018-05-18T12:23:33.809Z,40.30
2018-05-18T12:24:38.738Z,40.40
2018-05-18T12:25:43.634Z,40.40
2018-05-18T12:26:48.542Z,40.40
2018-05-18T12:27:53.730Z,40.30
2018-05-18T12:28:58.676Z,40.30
2018-05-18T12:30:04.188Z,40.30
2018-05-18T12:31:09.163Z,40.30
2018-05-18T12:32:14.085Z,40.30
2018-05-18T12:33:18.805Z,40.30
2018-05-18T12:34:23.793Z,40.30
2018-05-18T12:35:28.448Z,40.30
2018-05-18T12:36:33.412Z,40.30
2018-05-18T12:37:38.364Z,40.30
2018-05-18T12:38:43.141Z,40.20
2018-05-18T12:39:48.088Z,40.10
2018-05-18T12:40:52.930Z,40.10
2018-05-18T12:41:58.194Z,40.00
2018-05-18T12:43:03.107Z,40.00
2018-05-18T12:44:08.076Z,40.10
2018-05-18T12:45:12.840Z,40.00
2018-05-18T12:46:17.768Z,40.00
2018-05-18T12:47:22.848Z,40.00
2018-05-18T12:48:27.628Z,39.90
2018-05-18T12:49:32.571Z,40.00
2018-05-18T12:50:37.524Z,40.00
2018-05-18T12:51:42.443Z,39.90
2018-05-18T12:52:47.370Z,39.90
2018-05-18T12:53:52.077Z,40.00
2018-05-18T12:54:56.723Z,39.90
2018-05-18T12:56:01.587Z,39.90
2018-05-18T12:57:06.440Z,39.90
2018-05-18T12:58:11.153Z,40.00
2018-05-18T12:59:16.233Z,39.90
2018-05-18T13:00:21.122Z,39.80
2018-05-18T13:01:25.932Z,39.90
2018-05-18T13:02:31.052Z,40.00
2018-05-18T13:03:35.979Z,39.90
2018-05-18T13:04:41.193Z,39.90
2018-05-18T13:05:46.165Z,39.90
2018-05-18T13:06:51.084Z,39.90
2018-05-18T13:07:55.959Z,40.00
2018-05-18T13:09:00.865Z,39.90
2018-05-18T13:10:06.847Z,39.90
2018-05-18T13:11:11.814Z,39.90
2018-05-18T13:12:16.747Z,40.00
2018-05-18T13:13:21.398Z,40.00
2018-05-18T13:14:26.256Z,40.00
2018-05-18T13:15:31.240Z,40.00
2018-05-18T13:16:36.234Z,39.90
2018-05-18T13:17:41.228Z,39.90
2018-05-18T13:18:46.265Z,40.00
2018-05-18T13:19:51.702Z,40.00
2018-05-18T13:20:56.489Z,40.00
2018-05-18T13:22:01.412Z,40.10
2018-05-18T13:23:06.265Z,40.20
2018-05-18T13:24:11.231Z,40.10
2018-05-18T13:25:16.245Z,40.10
2018-05-18T13:26:21.635Z,40.30
2018-05-18T13:27:26.644Z,40.40
2018-05-18T13:28:31.671Z,40.40
2018-05-18T13:29:36.937Z,40.40
2018-05-18T13:30:42.050Z,40.30
2018-05-18T13:31:47.040Z,40.30
2018-05-18T13:32:52.061Z,40.50
2018-05-18T13:33:56.999Z,40.40
2018-05-18T13:35:01.907Z,40.40
2018-05-18T13:36:06.782Z,40.50
2018-05-18T13:37:11.822Z,40.50
2018-05-18T13:38:16.821Z,40.40
2018-05-18T13:39:21.903Z,40.40
2018-05-18T13:40:26.701Z,40.50
2018-05-18T13:41:31.566Z,40.30
2018-05-18T13:42:36.651Z,40.40
2018-05-18T13:43:41.592Z,40.40
2018-05-18T13:44:46.308Z,40.30
2018-05-18T13:45:51.241Z,40.40
2018-05-18T13:46:55.986Z,40.30
2018-05-18T13:48:01.542Z,40.10
2018-05-18T13:49:06.666Z,40.10
2018-05-18T13:50:11.709Z,40.20
2018-05-18T13:51:16.584Z,40.20
2018-05-18T13:52:21.524Z,40.30
2018-05-18T13:53:26.897Z,40.50
2018-05-18T13:54:31.644Z,40.50
2018-05-18T13:55:36.537Z,40.50
2018-05-18T13:56:41.650Z,40.50